Time;durP1;ratioP1;P1;durP2;ratioP2;P2;SDS_P1;SDS_P2;PMS_P1;PMS_P2;Temp;Humidity;BMP_temperature;BMP_pressure;BME280_temperature;BME280_humidity;BME280_pressure;Samples;Min_cycle;Max_cycle;Signal;HPM_P1;HPM_P2
2023/12/01 00:02:05;;;;;;;11.53;7.83;;;;;;;-4.56;100.00;100079.41;5114760;28;20426;-63
2023/12/01 00:04:31;;;;;;;8.60;7.23;;;;;;;-4.47;100.00;100090.13;5114130;28;20138;-64
2023/12/01 00:06:56;;;;;;;11.63;7.63;;;;;;;-4.86;100.00;100016.97;5114592;27;20043;-64
2023/12/01 00:09:22;;;;;;;10.03;7.10;;;;;;;-4.64;100.00;100063.38;5114508;28;20023;-64
2023/12/01 00:11:48;;;;;;;10.30;7.73;;;;;;;-4.48;100.00;100082.41;5096525;28;20042;-64
2023/12/01 00:14:13;;;;;;;9.70;6.33;;;;;;;-4.39;100.00;100087.09;5114680;28;20541;-63
2023/12/01 00:16:39;;;;;;;13.93;8.37;;;;;;;-4.79;100.00;100011.34;5115123;28;20035;-62
2023/12/01 00:19:04;;;;;;;8.93;7.10;;;;;;;-4.30;100.00;100096.19;5113861;28;20122;-63
2023/12/01 00:21:30;;;;;;;8.23;6.67;;;;;;;-4.19;100.00;100086.00;5114901;28;20398;-66
2023/12/01 00:23:55;;;;;;;13.70;7.43;;;;;;;-4.14;100.00;100081.38;5114309;28;20077;-63
2023/12/01 00:26:21;;;;;;;9.67;7.07;;;;;;;-4.17;100.00;100087.59;5114749;28;20037;-64
2023/12/01 00:28:46;;;;;;;11.27;7.77;;;;;;;-4.19;100.00;100086.84;5114564;28;20402;-64
2023/12/01 00:31:12;;;;;;;11.93;7.17;;;;;;;-4.53;100.00;100043.69;5114629;28;20032;-63
2023/12/01 00:33:38;;;;;;;11.03;7.73;;;;;;;-4.29;100.00;100072.69;5114605;28;20035;-65
2023/12/01 00:36:04;;;;;;;8.93;6.90;;;;;;;-4.31;100.00;100074.53;5113046;28;20032;-65
2023/12/01 00:38:30;;;;;;;9.27;7.22;;;;;;;-4.19;100.00;100073.84;5113387;28;20031;-67
2023/12/01 00:40:55;;;;;;;11.87;7.27;;;;;;;-4.10;100.00;100075.09;5113968;28;20161;-63
2023/12/01 00:43:21;;;;;;;10.67;7.03;;;;;;;-4.25;100.00;100044.75;5114630;28;20479;-64
2023/12/01 00:45:46;;;;;;;13.70;8.03;;;;;;;-4.28;100.00;100048.38;5114075;28;20047;-64
2023/12/01 00:48:12;;;;;;;8.67;6.33;;;;;;;-4.29;100.00;100051.06;5113651;28;20393;-64
2023/12/01 00:50:39;;;;;;;13.53;6.60;;;;;;;-4.21;100.00;100078.28;5113986;28;20466;-64
2023/12/01 00:53:05;;;;;;;8.82;7.10;;;;;;;-4.33;100.00;100057.34;5112667;28;20086;-64
2023/12/01 00:55:30;;;;;;;8.40;6.80;;;;;;;-4.38;100.00;100036.78;5113671;28;20530;-65
2023/12/01 00:57:56;;;;;;;9.50;7.43;;;;;;;-4.17;100.00;100077.19;5095500;28;20380;-64
2023/12/01 01:00:23;;;;;;;9.13;7.50;;;;;;;-4.20;100.00;100059.16;5113413;28;20273;-62
2023/12/01 01:02:50;;;;;;;10.38;7.15;;;;;;;-4.11;100.00;100069.03;5113722;28;20056;-65
2023/12/01 01:05:17;;;;;;;11.30;8.35;;;;;;;-4.15;100.00;100070.16;5112322;28;20067;-63
2023/12/01 01:07:43;;;;;;;11.32;8.43;;;;;;;-4.38;100.00;100036.78;5113080;28;20051;-64
2023/12/01 01:10:08;;;;;;;10.05;7.70;;;;;;;-4.23;100.00;100046.34;5112785;28;20556;-63
2023/12/01 01:12:34;;;;;;;10.27;7.77;;;;;;;-4.15;100.00;100075.34;5122072;28;20043;-63
2023/12/01 01:15:03;;;;;;;12.57;9.00;;;;;;;-4.38;100.00;100031.59;5116058;28;20038;-64
2023/12/01 01:17:33;;;;;;;10.52;7.03;;;;;;;-4.22;100.00;100068.81;5113088;28;20039;-64
2023/12/01 01:20:00;;;;;;;12.73;8.73;;;;;;;-4.28;100.00;100058.78;5112883;28;20039;-63
2023/12/01 01:22:26;;;;;;;9.88;7.53;;;;;;;-4.28;100.00;100053.56;5113064;28;20035;-63
2023/12/01 01:24:52;;;;;;;11.70;7.97;;;;;;;-4.24;100.00;100065.47;5113136;28;20039;-61
2023/12/01 01:27:18;;;;;;;10.43;7.75;;;;;;;-4.42;100.00;100045.69;5113008;28;20036;-61
2023/12/01 01:29:44;;;;;;;12.20;8.18;;;;;;;-4.32;100.00;100062.47;5130106;28;20418;-62
2023/12/01 01:32:14;;;;;;;12.05;7.63;;;;;;;-4.35;100.00;100060.00;5119251;28;20038;-62
2023/12/01 01:34:40;;;;;;;12.38;7.90;;;;;;;-4.76;100.00;99963.59;5112626;28;20483;-62
2023/12/01 01:37:07;;;;;;;14.20;8.17;;;;;;;-4.32;100.00;100046.88;5112677;28;20056;-64
2023/12/01 01:39:34;;;;;;;9.55;7.47;;;;;;;-4.29;100.00;100043.25;5121961;28;20036;-63
2023/12/01 01:42:00;;;;;;;11.73;8.32;;;;;;;-4.37;100.00;100028.06;5134930;28;20028;-65
2023/12/01 01:44:27;;;;;;;12.57;8.63;;;;;;;-4.26;100.00;100051.72;5118945;28;20100;-62
2023/12/01 01:46:54;;;;;;;12.07;8.38;;;;;;;-4.31;100.00;100039.91;5123775;28;20031;-65
2023/12/01 01:49:25;;;;;;;14.60;9.25;;;;;;;-4.21;100.00;100064.47;5132930;28;20054;-63
2023/12/01 01:51:52;;;;;;;11.70;8.63;;;;;;;-4.25;100.00;100053.41;5131053;28;20065;-64
2023/12/01 01:54:22;;;;;;;10.45;8.20;;;;;;;-4.23;100.00;100041.16;5131241;28;20020;-65
2023/12/01 01:56:48;;;;;;;13.85;9.65;;;;;;;-4.25;100.00;100039.56;5130602;28;20043;-62
2023/12/01 01:59:14;;;;;;;17.60;9.57;;;;;;;-4.26;100.00;100035.28;5131142;28;20015;-65
2023/12/01 02:01:39;;;;;;;13.53;9.97;;;;;;;-4.20;100.00;100053.97;5128486;28;20050;-65
2023/12/01 02:04:08;;;;;;;12.97;9.13;;;;;;;-4.24;100.00;100038.63;5128186;28;20130;-66
2023/12/01 02:06:34;;;;;;;14.82;9.80;;;;;;;-4.28;100.00;100037.13;5125584;28;20053;-64
2023/12/01 02:09:00;;;;;;;13.70;9.23;;;;;;;-4.17;100.00;100058.16;5101560;28;20039;-64
2023/12/01 02:11:26;;;;;;;13.55;9.32;;;;;;;-4.28;100.00;100031.94;5123548;28;20258;-65
2023/12/01 02:13:59;;;;;;;15.40;9.40;;;;;;;-4.18;100.00;100040.88;5124471;28;20063;-63
2023/12/01 02:16:26;;;;;;;12.55;9.02;;;;;;;-4.09;100.00;100042.94;5116562;28;20047;-62
2023/12/01 02:18:54;;;;;;;14.55;9.98;;;;;;;-4.08;100.00;100032.47;5112451;28;20088;-63
2023/12/01 02:21:24;;;;;;;15.20;10.32;;;;;;;-4.38;100.00;99966.63;5112504;28;20064;-63
2023/12/01 02:23:55;;;;;;;14.65;9.02;;;;;;;-4.12;100.00;100015.38;5112731;28;20091;-62
2023/12/01 02:26:23;;;;;;;13.85;9.43;;;;;;;-4.03;100.00;100020.97;5113230;28;20388;-63
2023/12/01 02:28:49;;;;;;;14.35;10.32;;;;;;;-4.07;100.00;100013.31;5112569;28;20032;-66
2023/12/01 02:31:15;;;;;;;14.40;10.40;;;;;;;-4.08;100.00;100022.06;5112098;28;20043;-63
2023/12/01 02:33:40;;;;;;;11.87;8.50;;;;;;;-4.15;100.00;100018.13;5111344;28;20028;-65
2023/12/01 02:36:08;;;;;;;12.10;9.67;;;;;;;-4.04;100.00;100024.50;5111503;28;20063;-63
2023/12/01 02:38:34;;;;;;;12.88;8.95;;;;;;;-4.19;100.00;100008.84;5111180;28;20119;-63
2023/12/01 02:41:02;;;;;;;12.70;9.50;;;;;;;-4.09;100.00;100033.38;5113074;28;20067;-64
2023/12/01 02:43:28;;;;;;;13.25;8.68;;;;;;;-4.30;100.00;100000.84;5112664;28;20039;-63
2023/12/01 02:45:54;;;;;;;11.77;10.32;;;;;;;-4.06;100.00;100024.56;5111040;28;20046;-65
2023/12/01 02:48:20;;;;;;;13.60;9.33;;;;;;;-4.19;100.00;100005.41;5112005;28;20822;-65
2023/12/01 02:50:46;;;;;;;13.53;9.07;;;;;;;-4.12;100.00;100010.16;5111735;28;20048;-65
2023/12/01 02:53:11;;;;;;;15.67;9.70;;;;;;;-4.08;100.00;100008.22;5111932;28;20027;-63
2023/12/01 02:55:37;;;;;;;11.37;8.73;;;;;;;-4.15;100.00;100005.13;5112138;28;20028;-65
2023/12/01 02:58:03;;;;;;;12.80;8.47;;;;;;;-4.08;100.00;100018.63;5111660;28;20027;-66
2023/12/01 03:00:29;;;;;;;13.02;8.98;;;;;;;-4.20;100.00;99988.97;5112067;28;20118;-65
2023/12/01 03:02:55;;;;;;;15.30;10.00;;;;;;;-4.03;100.00;100018.38;5113624;28;20059;-66
2023/12/01 03:05:21;;;;;;;13.05;8.48;;;;;;;-4.09;100.00;100011.75;5116267;28;20074;-62
2023/12/01 03:07:48;;;;;;;15.48;8.93;;;;;;;-4.18;100.00;100007.91;5115716;28;20035;-62
2023/12/01 03:10:14;;;;;;;17.98;9.43;;;;;;;-4.16;100.00;100019.06;5115537;28;20063;-65
2023/12/01 03:12:41;;;;;;;14.40;9.63;;;;;;;-4.14;100.00;100017.22;5115595;28;20129;-61
2023/12/01 03:15:10;;;;;;;12.98;9.10;;;;;;;-4.15;100.00;100012.94;5115731;28;20028;-65
2023/12/01 03:17:36;;;;;;;12.15;8.60;;;;;;;-4.18;100.00;100001.88;5114660;28;20543;-64
2023/12/01 03:20:07;;;;;;;14.85;9.43;;;;;;;-4.19;100.00;100001.03;5115596;28;20092;-63
2023/12/01 03:22:34;;;;;;;12.10;8.45;;;;;;;-4.12;100.00;100017.97;5115747;28;20088;-66
2023/12/01 03:24:59;;;;;;;14.48;9.85;;;;;;;-4.17;100.00;100014.78;5114228;28;20028;-62
2023/12/01 03:27:25;;;;;;;15.77;10.17;;;;;;;-4.22;100.00;100016.81;5115258;28;20516;-65
2023/12/01 03:29:54;;;;;;;14.32;9.27;;;;;;;-4.16;100.00;100008.66;5114276;28;20031;-61
2023/12/01 03:32:20;;;;;;;15.90;10.23;;;;;;;-4.27;100.00;99985.06;5115212;28;20395;-63
2023/12/01 03:34:46;;;;;;;14.33;8.70;;;;;;;-4.25;100.00;99982.38;5115407;28;20042;-63
2023/12/01 03:37:11;;;;;;;17.67;10.33;;;;;;;-4.26;100.00;99978.94;5115182;28;20059;-64
2023/12/01 03:39:37;;;;;;;15.83;10.03;;;;;;;-4.15;100.00;99986.09;5115161;28;20035;-64
2023/12/01 03:42:04;;;;;;;16.10;10.63;;;;;;;-4.01;100.00;100011.31;5114001;28;20037;-64
2023/12/01 03:44:30;;;;;;;16.15;11.40;;;;;;;-4.30;100.00;99971.41;5115290;28;20061;-63
2023/12/01 03:46:55;;;;;;;15.13;10.20;;;;;;;-4.26;100.00;99980.69;5115072;28;20490;-65
2023/12/01 03:49:21;;;;;;;15.10;10.67;;;;;;;-4.24;100.00;99979.69;5114803;28;20039;-63
2023/12/01 03:51:47;;;;;;;13.50;10.50;;;;;;;-4.13;100.00;99992.88;5114890;28;20079;-63
2023/12/01 03:54:12;;;;;;;17.20;11.13;;;;;;;-4.15;100.00;99986.94;5114664;27;20047;-64
2023/12/01 03:56:38;;;;;;;15.80;10.77;;;;;;;-4.15;100.00;99994.75;5114883;28;20407;-62
2023/12/01 03:59:09;;;;;;;14.80;9.93;;;;;;;-4.11;100.00;100003.19;5115110;28;20506;-66
2023/12/01 04:01:38;;;;;;;18.83;12.15;;;;;;;-4.14;100.00;99991.22;5114767;28;20375;-65
2023/12/01 04:04:05;;;;;;;16.45;11.68;;;;;;;-4.08;100.00;100009.06;5113490;28;20058;-64
2023/12/01 04:06:33;;;;;;;17.23;11.05;;;;;;;-4.37;100.00;99969.13;5114730;28;20132;-65
2023/12/01 04:09:09;;;;;;;14.60;9.80;;;;;;;-4.16;100.00;100000.88;5096342;28;20048;-65
2023/12/01 04:11:37;;;;;;;16.05;11.50;;;;;;;-4.26;100.00;99984.13;5115086;28;20494;-63
2023/12/01 04:14:03;;;;;;;15.98;10.50;;;;;;;-4.30;100.00;99981.78;5114415;28;20036;-63
2023/12/01 04:16:32;;;;;;;20.35;11.18;;;;;;;-4.20;100.00;99998.53;5114961;28;20031;-64
2023/12/01 04:18:58;;;;;;;14.90;10.60;;;;;;;-4.32;100.00;99966.28;5115514;28;20034;-65
2023/12/01 04:21:23;;;;;;;15.40;10.67;;;;;;;-4.22;100.00;99990.00;5115906;28;20035;-64
2023/12/01 04:23:49;;;;;;;18.83;12.67;;;;;;;-4.34;100.00;99970.72;5114305;28;20046;-64
2023/12/01 04:26:14;;;;;;;16.97;11.10;;;;;;;-4.45;100.00;99947.94;5115253;28;20058;-65
2023/12/01 04:28:40;;;;;;;19.07;11.37;;;;;;;-4.31;100.00;99975.75;5114494;28;20034;-65
2023/12/01 04:31:06;;;;;;;14.90;10.63;;;;;;;-4.24;100.00;99978.84;5114592;28;20067;-62
2023/12/01 04:33:32;;;;;;;16.03;11.03;;;;;;;-4.32;100.00;99968.88;5113138;28;20035;-64
2023/12/01 04:35:58;;;;;;;17.52;10.32;;;;;;;-4.41;100.00;99944.25;5113966;28;20032;-69
2023/12/01 04:38:26;;;;;;;18.95;12.15;;;;;;;-4.86;100.00;99868.94;5113867;28;20089;-68
2023/12/01 04:40:54;;;;;;;16.17;9.67;;;;;;;-4.43;100.00;99934.84;5114542;28;20043;-67
2023/12/01 04:43:20;;;;;;;19.20;10.05;;;;;;;-4.25;100.00;99951.16;5115440;28;20482;-64
2023/12/01 04:45:46;;;;;;;18.50;10.77;;;;;;;-4.21;100.00;99960.47;5112445;28;20037;-67
2023/12/01 04:48:11;;;;;;;17.50;10.90;;;;;;;-4.19;100.00;99969.84;5113944;28;20051;-67
2023/12/01 04:50:56;;;;;;;16.20;12.23;;;;;;;-4.59;100.00;99906.34;5113930;28;20092;-68
2023/12/01 04:53:22;;;;;;;20.67;11.00;;;;;;;-4.58;100.00;99912.38;5112807;28;20063;-68
2023/12/01 04:55:48;;;;;;;15.97;11.27;;;;;;;-4.18;100.00;99966.31;5112487;28;20566;-68
2023/12/01 04:58:14;;;;;;;15.67;11.03;;;;;;;-4.13;100.00;99960.84;5112341;28;20042;-69
2023/12/01 05:00:40;;;;;;;18.10;12.60;;;;;;;-4.17;100.00;99968.00;5111761;28;20503;-65
2023/12/01 05:03:08;;;;;;;32.03;12.90;;;;;;;-4.30;100.00;99966.19;5111788;28;20047;-68
2023/12/01 05:05:38;;;;;;;17.60;11.07;;;;;;;-4.41;100.00;99959.00;5113783;28;20088;-64
2023/12/01 05:08:07;;;;;;;17.27;10.82;;;;;;;-4.51;100.00;99944.88;5111490;28;20130;-64
2023/12/01 05:10:34;;;;;;;18.02;11.23;;;;;;;-4.56;100.00;99937.34;5112926;28;20063;-64
2023/12/01 05:13:04;;;;;;;16.35;10.70;;;;;;;-4.29;100.00;99968.72;5112922;28;20483;-65
2023/12/01 05:15:32;;;;;;;14.43;11.25;;;;;;;-4.32;100.00;99963.69;5112959;28;20031;-66
2023/12/01 05:18:00;;;;;;;18.17;10.90;;;;;;;-4.43;100.00;99943.50;5109804;28;20130;-66
2023/12/01 05:20:29;;;;;;;18.80;12.05;;;;;;;-4.39;100.00;99949.34;5113094;28;20031;-68
2023/12/01 05:22:57;;;;;;;19.00;11.50;;;;;;;-4.27;100.00;99969.47;5113587;28;20038;-70
2023/12/01 05:25:25;;;;;;;15.35;11.32;;;;;;;-4.23;100.00;99973.56;5113156;27;20542;-68
2023/12/01 05:27:54;;;;;;;18.73;10.02;;;;;;;-4.34;100.00;99956.88;5113603;28;20107;-64
2023/12/01 05:30:28;;;;;;;20.80;11.32;;;;;;;-4.36;100.00;99938.78;5113628;28;20040;-65
2023/12/01 05:32:55;;;;;;;15.88;10.95;;;;;;;-4.21;100.00;99950.06;5114481;28;20043;-63
2023/12/01 05:35:22;;;;;;;15.82;11.20;;;;;;;-4.23;100.00;99947.56;5113661;28;20118;-65
2023/12/01 05:37:50;;;;;;;17.52;11.15;;;;;;;-4.16;100.00;99959.25;5113308;28;20035;-64
2023/12/01 05:40:20;;;;;;;14.32;10.30;;;;;;;-4.33;100.00;99940.38;5113614;28;20127;-64
2023/12/01 05:42:47;;;;;;;16.75;11.52;;;;;;;-4.17;100.00;99965.38;5113962;28;20063;-63
2023/12/01 05:45:14;;;;;;;15.45;10.38;;;;;;;-4.07;100.00;99963.91;5113612;28;20035;-64
2023/12/01 05:47:44;;;;;;;17.67;11.18;;;;;;;-4.00;100.00;99954.03;5113363;28;20044;-67
2023/12/01 05:50:15;;;;;;;15.43;10.63;;;;;;;-3.84;100.00;99953.94;5113086;28;20039;-65
2023/12/01 05:52:43;;;;;;;20.27;11.30;;;;;;;-3.86;100.00;99955.78;5111776;28;20527;-65
2023/12/01 05:55:16;;;;;;;14.75;9.63;;;;;;;-3.84;100.00;99972.13;5111202;28;20108;-69
2023/12/01 05:57:45;;;;;;;17.95;11.23;;;;;;;-3.92;100.00;99954.41;5112690;28;20047;-67
2023/12/01 06:00:30;;;;;;;15.98;11.27;;;;;;;-3.91;100.00;99963.88;5112643;28;20038;-68
2023/12/01 06:03:06;;;;;;;14.82;10.20;;;;;;;-3.98;100.00;99953.94;5112563;28;20035;-62
2023/12/01 06:05:33;;;;;;;17.30;10.43;;;;;;;-3.90;100.00;99975.94;5112532;28;20044;-67
2023/12/01 06:08:00;;;;;;;16.40;11.02;;;;;;;-4.33;100.00;99909.19;5112567;28;20080;-65
2023/12/01 06:10:27;;;;;;;16.60;10.60;;;;;;;-4.12;100.00;99950.34;5112517;28;20031;-64
2023/12/01 06:12:53;;;;;;;17.13;12.40;;;;;;;-4.12;100.00;99950.34;5112141;28;20063;-67
2023/12/01 06:15:19;;;;;;;16.70;11.90;;;;;;;-3.94;100.00;99978.81;5110928;28;20502;-67
2023/12/01 06:17:52;;;;;;;18.85;11.50;;;;;;;-4.06;100.00;99941.34;5112557;28;20036;-63
2023/12/01 06:20:20;;;;;;;18.25;10.50;;;;;;;-4.01;100.00;99967.13;5094630;28;20449;-66
2023/12/01 06:23:00;;;;;;;14.77;10.57;;;;;;;-4.14;100.00;99938.38;5112342;28;20039;-63
2023/12/01 06:25:30;;;;;;;18.92;11.95;;;;;;;-4.07;100.00;99960.47;5110163;28;20079;-63
2023/12/01 06:28:01;;;;;;;18.08;11.93;;;;;;;-4.56;100.00;99867.19;5110356;28;20475;-62
2023/12/01 06:30:29;;;;;;;15.18;10.95;;;;;;;-3.94;100.00;99963.22;5111288;28;20375;-64
2023/12/01 06:32:55;;;;;;;16.77;11.93;;;;;;;-3.85;100.00;99968.72;5109350;28;20130;-64
2023/12/01 06:35:21;;;;;;;23.50;13.27;;;;;;;-4.04;100.00;99941.28;5112262;28;20040;-65
2023/12/01 06:37:47;;;;;;;22.87;11.03;;;;;;;-3.90;100.00;99959.50;5111084;28;20035;-66
2023/12/01 06:40:16;;;;;;;16.27;10.75;;;;;;;-3.94;100.00;99958.00;5111816;28;20315;-65
2023/12/01 06:42:44;;;;;;;18.02;10.38;;;;;;;-3.92;100.00;99966.56;5112031;28;20050;-66
2023/12/01 06:45:12;;;;;;;16.23;11.43;;;;;;;-4.41;100.00;99894.84;5111821;28;20039;-65
2023/12/01 06:47:40;;;;;;;20.27;11.60;;;;;;;-3.95;100.00;99971.94;5112012;28;20441;-65
2023/12/01 06:50:09;;;;;;;21.58;12.48;;;;;;;-3.99;100.00;99967.84;5110822;28;20046;-66
2023/12/01 06:52:36;;;;;;;17.58;12.38;;;;;;;-4.07;100.00;99956.13;5111883;28;20031;-65
2023/12/01 06:55:04;;;;;;;20.02;11.55;;;;;;;-3.93;100.00;99970.09;5111407;28;20042;-64
2023/12/01 06:57:30;;;;;;;21.90;12.50;;;;;;;-4.03;100.00;99953.38;5110533;28;20551;-65
2023/12/01 06:59:56;;;;;;;23.80;14.63;;;;;;;-4.04;100.00;99952.53;5093992;28;20043;-65
2023/12/01 07:02:23;;;;;;;16.73;11.83;;;;;;;-3.98;100.00;99962.56;5111417;28;20042;-67
2023/12/01 07:04:49;;;;;;;20.17;13.80;;;;;;;-3.88;100.00;99975.84;5112337;28;20388;-67
2023/12/01 07:07:15;;;;;;;16.38;10.43;;;;;;;-3.93;100.00;99954.50;5112374;28;20051;-65
2023/12/01 07:09:45;;;;;;;17.03;11.63;;;;;;;-3.82;100.00;99946.88;5113489;28;20596;-67
2023/12/01 07:12:10;;;;;;;18.10;12.60;;;;;;;-3.81;100.00;99935.53;5110452;28;20053;-68
2023/12/01 07:14:37;;;;;;;17.87;10.93;;;;;;;-3.64;100.00;99950.16;5112720;28;20044;-68
2023/12/01 07:17:06;;;;;;;20.52;13.60;;;;;;;-3.49;100.00;99965.66;5110430;28;20038;-66
2023/12/01 07:19:34;;;;;;;21.42;13.48;;;;;;;-3.51;100.00;99951.91;5111608;28;20038;-67
2023/12/01 07:22:00;;;;;;;19.90;12.55;;;;;;;-3.78;100.00;99914.53;5110774;28;20028;-67
2023/12/01 07:24:25;;;;;;;21.70;12.57;;;;;;;-3.57;100.00;99941.03;5110494;28;20038;-63
2023/12/01 07:26:52;;;;;;;21.13;14.10;;;;;;;-3.43;100.00;99954.06;5111364;28;20047;-67
2023/12/01 07:29:18;;;;;;;20.85;13.27;;;;;;;-3.39;100.00;99960.75;5111487;28;20118;-65
2023/12/01 07:31:44;;;;;;;18.60;12.32;;;;;;;-3.36;100.00;99980.56;5110293;28;20447;-64
2023/12/01 07:34:11;;;;;;;24.40;13.55;;;;;;;-3.47;100.00;99963.81;5111431;28;20116;-68
2023/12/01 07:36:37;;;;;;;17.35;11.63;;;;;;;-3.44;100.00;99963.63;5110356;28;20043;-68
2023/12/01 07:39:03;;;;;;;17.98;12.43;;;;;;;-3.45;100.00;99969.78;5109864;28;20478;-68
2023/12/01 07:41:29;;;;;;;18.77;12.37;;;;;;;-3.44;100.00;99974.06;5111497;28;20062;-66
2023/12/01 07:43:55;;;;;;;17.90;12.67;;;;;;;-3.38;100.00;99978.03;5111517;28;20118;-69
2023/12/01 07:46:21;;;;;;;26.52;14.10;;;;;;;-3.60;100.00;99936.84;5111222;28;20475;-68
2023/12/01 07:48:47;;;;;;;23.13;13.53;;;;;;;-3.65;100.00;99944.09;5112990;28;20043;-69
2023/12/01 07:51:12;;;;;;;22.90;13.87;;;;;;;-3.42;100.00;99975.72;5115109;28;20046;-70
2023/12/01 07:53:38;;;;;;;18.27;12.77;;;;;;;-3.64;100.00;99935.38;5114906;28;20039;-66
2023/12/01 07:56:04;;;;;;;24.73;14.27;;;;;;;-3.52;100.00;99937.22;5114744;28;20455;-69
2023/12/01 07:58:29;;;;;;;19.52;12.43;;;;;;;-3.36;100.00;99954.50;5115075;28;20055;-65
2023/12/01 08:00:57;;;;;;;22.93;14.33;;;;;;;-3.18;100.00;99982.00;5113180;28;20399;-65
2023/12/01 08:03:23;;;;;;;18.88;12.88;;;;;;;-3.29;100.00;99980.06;5114913;28;20482;-67
2023/12/01 08:05:49;;;;;;;18.57;12.63;;;;;;;-3.23;100.00;99986.66;5114500;28;20074;-67
2023/12/01 08:08:14;;;;;;;27.93;13.93;;;;;;;-3.34;100.00;99957.84;5111741;28;20043;-65
2023/12/01 08:10:41;;;;;;;20.87;12.37;;;;;;;-3.20;100.00;99976.06;5090524;28;20457;-67
2023/12/01 08:13:08;;;;;;;17.42;11.57;;;;;;;-3.19;100.00;99982.94;5092558;28;20039;-65
2023/12/01 08:15:33;;;;;;;18.98;12.25;;;;;;;-3.26;100.00;99961.66;5092706;28;20074;-67
2023/12/01 08:18:00;;;;;;;18.70;11.90;;;;;;;-3.16;100.00;99982.78;5092697;28;20064;-66
2023/12/01 08:20:28;;;;;;;20.23;14.02;;;;;;;-3.48;100.00;99917.03;5094180;28;20039;-66
2023/12/01 08:22:54;;;;;;;18.48;10.25;;;;;;;-3.04;100.00;99984.59;5094581;28;20051;-65
2023/12/01 08:25:22;;;;;;;20.17;12.03;;;;;;;-3.01;100.00;99976.59;5094348;28;20032;-68
2023/12/01 08:27:47;;;;;;;17.45;12.10;;;;;;;-2.88;100.00;99985.34;5094066;28;20051;-66
2023/12/01 08:30:13;;;;;;;22.20;13.90;;;;;;;-3.02;100.00;99967.13;5093981;28;20396;-65
2023/12/01 08:32:39;;;;;;;22.30;13.53;;;;;;;-3.04;100.00;99963.78;5093834;28;20124;-65
2023/12/01 08:35:05;;;;;;;20.10;13.00;;;;;;;-2.93;100.00;99984.75;5094041;28;20500;-68
2023/12/01 08:37:31;;;;;;;18.50;12.25;;;;;;;-3.13;100.00;99969.56;5093858;28;20059;-68
2023/12/01 08:39:57;;;;;;;19.87;14.03;;;;;;;-3.02;100.00;99982.75;5093307;28;20063;-66
2023/12/01 08:42:23;;;;;;;20.93;13.10;;;;;;;-2.96;100.00;99990.16;5093374;28;20070;-67
2023/12/01 08:44:49;;;;;;;16.80;12.50;;;;;;;-3.00;100.00;99973.06;5094338;28;20044;-68
2023/12/01 08:47:17;;;;;;;22.60;12.43;;;;;;;-2.94;100.00;99983.09;5094057;28;20487;-65
2023/12/01 08:49:43;;;;;;;18.20;12.10;;;;;;;-2.99;100.00;99969.53;5093799;28;20079;-67
2023/12/01 08:52:08;;;;;;;21.33;12.33;;;;;;;-3.01;100.00;99957.53;5092250;28;20105;-66
2023/12/01 08:54:34;;;;;;;19.37;13.03;;;;;;;-2.94;100.00;99974.44;5093806;28;20032;-65
2023/12/01 08:57:01;;;;;;;23.38;13.57;;;;;;;-2.84;100.00;99979.00;5093976;28;20040;-65
2023/12/01 08:59:27;;;;;;;23.30;13.43;;;;;;;-2.77;100.00;99989.03;5093330;28;20134;-66
2023/12/01 09:01:53;;;;;;;21.80;15.27;;;;;;;-2.94;100.00;99966.63;5093558;28;20511;-64
2023/12/01 09:04:20;;;;;;;23.63;12.87;;;;;;;-2.96;100.00;99953.69;5094056;28;20070;-64
2023/12/01 09:06:46;;;;;;;19.95;12.27;;;;;;;-2.85;100.00;99961.69;5093213;28;20044;-70
2023/12/01 09:09:12;;;;;;;17.53;12.30;;;;;;;-2.77;100.00;99983.81;5094388;28;20039;-65
2023/12/01 09:11:38;;;;;;;23.73;13.63;;;;;;;-2.91;100.00;99959.44;5094519;28;20620;-67
2023/12/01 09:14:03;;;;;;;23.20;14.27;;;;;;;-3.15;100.00;99933.19;5093683;28;20063;-65
2023/12/01 09:16:29;;;;;;;21.97;13.90;;;;;;;-2.96;100.00;99974.53;5092864;28;20032;-67
2023/12/01 09:18:54;;;;;;;22.80;13.13;;;;;;;-3.33;100.00;99915.28;5093577;28;20118;-66
2023/12/01 09:21:20;;;;;;;23.37;12.53;;;;;;;-3.01;100.00;99958.38;5092404;28;20127;-65
2023/12/01 09:23:46;;;;;;;19.50;14.17;;;;;;;-2.94;100.00;99961.41;5093659;28;20114;-66
2023/12/01 09:26:18;;;;;;;22.43;14.37;;;;;;;-2.73;100.00;99975.69;5093754;28;20028;-65
2023/12/01 09:28:45;;;;;;;22.33;13.90;;;;;;;-2.71;100.00;99973.00;5094400;28;20032;-65
2023/12/01 09:31:12;;;;;;;20.90;13.25;;;;;;;-2.63;100.00;99975.94;5093701;28;20043;-68
2023/12/01 09:33:37;;;;;;;20.70;13.10;;;;;;;-2.72;100.00;99946.09;5092759;28;20059;-68
2023/12/01 09:36:04;;;;;;;22.70;14.40;;;;;;;-2.66;100.00;99970.94;5091521;28;20495;-65
2023/12/01 09:38:31;;;;;;;20.20;12.80;;;;;;;-2.69;100.00;99955.50;5092790;28;20028;-63
2023/12/01 09:40:56;;;;;;;21.17;13.75;;;;;;;-2.55;100.00;99976.31;5092737;28;20040;-67
2023/12/01 09:43:23;;;;;;;19.73;13.87;;;;;;;-2.55;100.00;99974.53;5092814;28;20042;-66
2023/12/01 09:45:52;;;;;;;20.40;13.82;;;;;;;-2.55;100.00;99963.28;5092776;28;20039;-62
2023/12/01 09:48:19;;;;;;;26.63;16.65;;;;;;;-2.44;100.00;99968.63;5092339;28;20040;-66
2023/12/01 09:50:49;;;;;;;25.60;17.60;;;;;;;-2.51;100.00;99967.34;5092141;28;20548;-64
2023/12/01 09:53:16;;;;;;;29.20;14.65;;;;;;;-2.73;100.00;99946.19;5092473;28;20503;-67
2023/12/01 09:55:43;;;;;;;31.98;19.15;;;;;;;-2.68;100.00;99951.94;5091030;28;20036;-65
2023/12/01 09:58:14;;;;;;;26.20;15.88;;;;;;;-2.60;100.00;99974.00;5092097;28;20047;-67
2023/12/01 10:00:39;;;;;;;25.77;14.77;;;;;;;-2.53;100.00;99972.66;5092492;28;20083;-66
2023/12/01 10:03:06;;;;;;;24.30;16.70;;;;;;;-2.94;100.00;99897.13;5092089;28;20490;-68
2023/12/01 10:05:32;;;;;;;31.90;18.80;;;;;;;-2.68;100.00;99942.34;5092234;28;20127;-66
2023/12/01 10:07:58;;;;;;;28.58;17.55;;;;;;;-2.57;100.00;99960.78;5092353;28;20042;-66
2023/12/01 10:10:26;;;;;;;27.60;18.40;;;;;;;-2.58;100.00;99960.88;5092209;28;20036;-67
2023/12/01 10:13:07;;;;;;;25.65;17.05;;;;;;;-2.72;100.00;99940.06;5092109;28;20047;-64
2023/12/01 10:15:38;;;;;;;28.33;15.52;;;;;;;-2.76;100.00;99954.22;5091926;28;20031;-64
2023/12/01 10:18:17;;;;;;;21.63;14.13;;;;;;;-2.86;100.00;99920.94;5092062;28;20035;-66
2023/12/01 10:21:07;;;;;;;20.65;14.00;;;;;;;-2.50;100.00;99941.19;5092303;28;20096;-67
2023/12/01 10:23:33;;;;;;;21.42;12.50;;;;;;;-2.35;100.00;99956.75;5092178;28;20428;-63
2023/12/01 10:26:03;;;;;;;21.40;13.15;;;;;;;-2.36;100.00;99942.88;5090328;28;20158;-65
2023/12/01 10:28:39;;;;;;;17.95;12.65;;;;;;;-2.32;100.00;99946.94;5091939;28;20035;-67
2023/12/01 10:31:06;;;;;;;19.95;13.77;;;;;;;-2.28;100.00;99961.47;5092016;28;20040;-68
2023/12/01 10:33:34;;;;;;;21.95;13.93;;;;;;;-2.33;100.00;99963.53;5090536;28;20081;-65
2023/12/01 10:36:01;;;;;;;17.75;12.60;;;;;;;-2.42;100.00;99958.91;5090968;28;20062;-65
2023/12/01 10:38:33;;;;;;;22.35;12.75;;;;;;;-2.75;100.00;99937.66;5090834;28;20036;-68
2023/12/01 10:40:59;;;;;;;23.02;13.85;;;;;;;-2.97;100.00;99918.16;5089515;28;20032;-65
2023/12/01 10:43:27;;;;;;;18.75;12.85;;;;;;;-2.66;100.00;99958.72;5091278;28;20039;-67
2023/12/01 10:45:53;;;;;;;19.58;11.95;;;;;;;-2.80;100.00;99937.94;5091269;28;20063;-68
2023/12/01 10:48:21;;;;;;;18.60;12.23;;;;;;;-2.98;100.00;99907.84;5089768;28;20549;-67
2023/12/01 10:50:49;;;;;;;23.58;15.85;;;;;;;-3.46;100.00;99817.13;5090597;28;20040;-67
2023/12/01 10:53:16;;;;;;;18.00;11.85;;;;;;;-2.59;100.00;99962.63;5089656;28;20040;-62
2023/12/01 10:55:46;;;;;;;20.75;13.77;;;;;;;-2.76;100.00;99941.19;5091045;28;20032;-65
2023/12/01 10:58:21;;;;;;;21.70;13.88;;;;;;;-3.10;100.00;99887.78;5091111;28;20032;-67
2023/12/01 11:00:52;;;;;;;19.25;11.82;;;;;;;-2.88;100.00;99941.03;5089980;28;20055;-67
2023/12/01 11:03:22;;;;;;;20.08;13.20;;;;;;;-2.87;100.00;99947.94;5090602;28;20441;-67
2023/12/01 11:06:31;;;;;;;18.88;11.85;;;;;;;-2.98;100.00;99939.94;5090630;28;20043;-71
2023/12/01 11:09:21;;;;;;;20.85;13.73;;;;;;;-2.87;100.00;99950.53;5089234;28;20044;-63
2023/12/01 11:12:09;;;;;;;19.55;14.18;;;;;;;-2.88;100.00;99951.47;5091283;28;20044;-69